sensor_id;sensor_type;location;lat;lon;timestamp;P1;durP1;ratioP1;P2;durP2;ratioP2
79592;SDS011;69074;45.164;9.704;2023-04-25T00:02:25;3.1;;;1.8;;
79592;SDS011;69074;45.164;9.704;2023-04-25T00:04:49;3.1;;;1.8;;
79592;SDS011;69074;45.164;9.704;2023-04-25T00:07:15;3.1;;;1.8;;
79592;SDS011;69074;45.164;9.704;2023-04-25T00:09:39;3.1;;;1.8;;
79592;SDS011;69074;45.164;9.704;2023-04-25T00:12:05;3.1;;;1.8;;
79592;SDS011;69074;45.164;9.704;2023-04-25T00:14:29;3.1;;;1.8;;
79592;SDS011;69074;45.164;9.704;2023-04-25T00:16:54;3.1;;;1.8;;
79592;SDS011;69074;45.164;9.704;2023-04-25T00:19:19;1.7;;;1.4;;
79592;SDS011;69074;45.164;9.704;2023-04-25T00:21:45;1.7;;;1.4;;
79592;SDS011;69074;45.164;9.704;2023-04-25T00:24:09;1.7;;;1.4;;
79592;SDS011;69074;45.164;9.704;2023-04-25T00:26:35;1.7;;;1.4;;
79592;SDS011;69074;45.164;9.704;2023-04-25T00:29:00;1.7;;;1.4;;
79592;SDS011;69074;45.164;9.704;2023-04-25T00:31:25;1.7;;;1.4;;
79592;SDS011;69074;45.164;9.704;2023-04-25T00:33:50;2.6;;;1.3;;
79592;SDS011;69074;45.164;9.704;2023-04-25T00:36:15;2.6;;;1.3;;
79592;SDS011;69074;45.164;9.704;2023-04-25T00:38:40;2.6;;;1.3;;
79592;SDS011;69074;45.164;9.704;2023-04-25T00:41:05;2.6;;;1.3;;
79592;SDS011;69074;45.164;9.704;2023-04-25T00:43:30;2.6;;;1.3;;
79592;SDS011;69074;45.164;9.704;2023-04-25T00:45:55;2.6;;;1.3;;
79592;SDS011;69074;45.164;9.704;2023-04-25T00:48:20;1.6;;;1.3;;
79592;SDS011;69074;45.164;9.704;2023-04-25T00:50:45;1.6;;;1.3;;
79592;SDS011;69074;45.164;9.704;2023-04-25T00:53:10;1.6;;;1.3;;
79592;SDS011;69074;45.164;9.704;2023-04-25T00:55:35;1.6;;;1.3;;
79592;SDS011;69074;45.164;9.704;2023-04-25T00:58:00;1.6;;;1.3;;
79592;SDS011;69074;45.164;9.704;2023-04-25T01:00:25;1.6;;;1.3;;
79592;SDS011;69074;45.164;9.704;2023-04-25T01:02:50;1.5;;;0.8;;
79592;SDS011;69074;45.164;9.704;2023-04-25T01:05:15;1.5;;;0.8;;
79592;SDS011;69074;45.164;9.704;2023-04-25T01:07:40;1.5;;;0.8;;
79592;SDS011;69074;45.164;9.704;2023-04-25T01:10:05;1.5;;;0.8;;
79592;SDS011;69074;45.164;9.704;2023-04-25T01:12:30;1.5;;;0.8;;
79592;SDS011;69074;45.164;9.704;2023-04-25T01:14:55;1.5;;;0.8;;
79592;SDS011;69074;45.164;9.704;2023-04-25T01:17:20;1.0;;;0.9;;
79592;SDS011;69074;45.164;9.704;2023-04-25T01:19:45;1.0;;;0.9;;
79592;SDS011;69074;45.164;9.704;2023-04-25T01:22:10;1.0;;;0.9;;
79592;SDS011;69074;45.164;9.704;2023-04-25T01:24:35;1.0;;;0.9;;
79592;SDS011;69074;45.164;9.704;2023-04-25T01:27:00;1.0;;;0.9;;
79592;SDS011;69074;45.164;9.704;2023-04-25T01:29:25;1.0;;;0.9;;
79592;SDS011;69074;45.164;9.704;2023-04-25T01:31:50;1.0;;;0.9;;
79592;SDS011;69074;45.164;9.704;2023-04-25T01:34:15;1.6;;;1.0;;
79592;SDS011;69074;45.164;9.704;2023-04-25T01:36:40;1.6;;;1.0;;
79592;SDS011;69074;45.164;9.704;2023-04-25T01:39:05;1.6;;;1.0;;
79592;SDS011;69074;45.164;9.704;2023-04-25T01:41:30;1.6;;;1.0;;
79592;SDS011;69074;45.164;9.704;2023-04-25T01:43:55;1.6;;;1.0;;
79592;SDS011;69074;45.164;9.704;2023-04-25T01:46:20;1.6;;;1.0;;
79592;SDS011;69074;45.164;9.704;2023-04-25T01:48:45;0.9;;;0.8;;
79592;SDS011;69074;45.164;9.704;2023-04-25T01:51:10;0.9;;;0.8;;
79592;SDS011;69074;45.164;9.704;2023-04-25T01:53:35;0.9;;;0.8;;
79592;SDS011;69074;45.164;9.704;2023-04-25T01:56:00;0.9;;;0.8;;
79592;SDS011;69074;45.164;9.704;2023-04-25T01:58:25;0.9;;;0.8;;
79592;SDS011;69074;45.164;9.704;2023-04-25T02:00:50;0.9;;;0.8;;
79592;SDS011;69074;45.164;9.704;2023-04-25T02:03:15;1.7;;;1.0;;
79592;SDS011;69074;45.164;9.704;2023-04-25T02:05:40;1.7;;;1.0;;
79592;SDS011;69074;45.164;9.704;2023-04-25T02:08:06;1.7;;;1.0;;
79592;SDS011;69074;45.164;9.704;2023-04-25T02:10:30;1.7;;;1.0;;
79592;SDS011;69074;45.164;9.704;2023-04-25T02:12:56;1.7;;;1.0;;
79592;SDS011;69074;45.164;9.704;2023-04-25T02:15:20;1.7;;;1.0;;
79592;SDS011;69074;45.164;9.704;2023-04-25T02:17:45;1.8;;;0.9;;
79592;SDS011;69074;45.164;9.704;2023-04-25T02:20:10;1.8;;;0.9;;
79592;SDS011;69074;45.164;9.704;2023-04-25T02:22:35;1.8;;;0.9;;
79592;SDS011;69074;45.164;9.704;2023-04-25T02:25:00;1.8;;;0.9;;
79592;SDS011;69074;45.164;9.704;2023-04-25T02:27:25;1.8;;;0.9;;
79592;SDS011;69074;45.164;9.704;2023-04-25T02:29:50;1.8;;;0.9;;
79592;SDS011;69074;45.164;9.704;2023-04-25T02:32:15;1.3;;;0.9;;
79592;SDS011;69074;45.164;9.704;2023-04-25T02:34:40;1.3;;;0.9;;
79592;SDS011;69074;45.164;9.704;2023-04-25T02:37:05;1.3;;;0.9;;
79592;SDS011;69074;45.164;9.704;2023-04-25T02:39:30;1.3;;;0.9;;
79592;SDS011;69074;45.164;9.704;2023-04-25T02:41:55;1.3;;;0.9;;
79592;SDS011;69074;45.164;9.704;2023-04-25T02:44:20;1.3;;;0.9;;
79592;SDS011;69074;45.164;9.704;2023-04-25T02:46:45;1.3;;;0.9;;
79592;SDS011;69074;45.164;9.704;2023-04-25T02:49:10;1.6;;;0.7;;
79592;SDS011;69074;45.164;9.704;2023-04-25T02:51:35;1.6;;;0.7;;
79592;SDS011;69074;45.164;9.704;2023-04-25T02:54:00;1.6;;;0.7;;
79592;SDS011;69074;45.164;9.704;2023-04-25T02:56:25;1.6;;;0.7;;
79592;SDS011;69074;45.164;9.704;2023-04-25T02:58:50;1.6;;;0.7;;
79592;SDS011;69074;45.164;9.704;2023-04-25T03:01:15;1.6;;;0.7;;
79592;SDS011;69074;45.164;9.704;2023-04-25T03:03:40;2.1;;;0.8;;
79592;SDS011;69074;45.164;9.704;2023-04-25T03:06:05;2.1;;;0.8;;
79592;SDS011;69074;45.164;9.704;2023-04-25T03:08:30;2.1;;;0.8;;
79592;SDS011;69074;45.164;9.704;2023-04-25T03:10:55;2.1;;;0.8;;
79592;SDS011;69074;45.164;9.704;2023-04-25T03:13:20;2.1;;;0.8;;
79592;SDS011;69074;45.164;9.704;2023-04-25T03:15:45;2.1;;;0.8;;
79592;SDS011;69074;45.164;9.704;2023-04-25T03:18:10;2.4;;;1.0;;
79592;SDS011;69074;45.164;9.704;2023-04-25T03:20:35;2.4;;;1.0;;
79592;SDS011;69074;45.164;9.704;2023-04-25T03:23:00;2.4;;;1.0;;
79592;SDS011;69074;45.164;9.704;2023-04-25T03:25:25;2.4;;;1.0;;
79592;SDS011;69074;45.164;9.704;2023-04-25T03:27:50;2.4;;;1.0;;
79592;SDS011;69074;45.164;9.704;2023-04-25T03:30:15;2.4;;;1.0;;
79592;SDS011;69074;45.164;9.704;2023-04-25T03:32:40;1.5;;;0.8;;
79592;SDS011;69074;45.164;9.704;2023-04-25T03:35:06;1.5;;;0.8;;
79592;SDS011;69074;45.164;9.704;2023-04-25T03:37:31;1.5;;;0.8;;
79592;SDS011;69074;45.164;9.704;2023-04-25T03:39:55;1.5;;;0.8;;
79592;SDS011;69074;45.164;9.704;2023-04-25T03:42:20;1.5;;;0.8;;
79592;SDS011;69074;45.164;9.704;2023-04-25T03:44:45;1.5;;;0.8;;
79592;SDS011;69074;45.164;9.704;2023-04-25T03:47:10;1.5;;;0.8;;
79592;SDS011;69074;45.164;9.704;2023-04-25T03:49:36;1.3;;;0.8;;
79592;SDS011;69074;45.164;9.704;2023-04-25T03:52:00;1.3;;;0.8;;
79592;SDS011;69074;45.164;9.704;2023-04-25T03:54:26;1.3;;;0.8;;
79592;SDS011;69074;45.164;9.704;2023-04-25T03:56:51;1.3;;;0.8;;
79592;SDS011;69074;45.164;9.704;2023-04-25T03:59:16;1.3;;;0.8;;
79592;SDS011;69074;45.164;9.704;2023-04-25T04:01:40;1.3;;;0.8;;
79592;SDS011;69074;45.164;9.704;2023-04-25T04:04:06;1.1;;;0.7;;
79592;SDS011;69074;45.164;9.704;2023-04-25T04:06:31;1.1;;;0.7;;
79592;SDS011;69074;45.164;9.704;2023-04-25T04:08:56;1.1;;;0.7;;
79592;SDS011;69074;45.164;9.704;2023-04-25T04:11:21;1.1;;;0.7;;
79592;SDS011;69074;45.164;9.704;2023-04-25T04:13:46;1.1;;;0.7;;
79592;SDS011;69074;45.164;9.704;2023-04-25T04:16:11;1.1;;;0.7;;
79592;SDS011;69074;45.164;9.704;2023-04-25T04:18:36;2.8;;;1.4;;
79592;SDS011;69074;45.164;9.704;2023-04-25T04:21:01;2.8;;;1.4;;
79592;SDS011;69074;45.164;9.704;2023-04-25T04:23:26;2.8;;;1.4;;
79592;SDS011;69074;45.164;9.704;2023-04-25T04:25:51;2.8;;;1.4;;
79592;SDS011;69074;45.164;9.704;2023-04-25T04:28:16;2.8;;;1.4;;
79592;SDS011;69074;45.164;9.704;2023-04-25T04:30:41;2.8;;;1.4;;
79592;SDS011;69074;45.164;9.704;2023-04-25T04:33:06;1.6;;;1.1;;
79592;SDS011;69074;45.164;9.704;2023-04-25T04:35:31;1.6;;;1.1;;
79592;SDS011;69074;45.164;9.704;2023-04-25T04:37:56;1.6;;;1.1;;
79592;SDS011;69074;45.164;9.704;2023-04-25T04:40:21;1.6;;;1.1;;
79592;SDS011;69074;45.164;9.704;2023-04-25T04:42:46;1.6;;;1.1;;
79592;SDS011;69074;45.164;9.704;2023-04-25T04:45:11;1.6;;;1.1;;
79592;SDS011;69074;45.164;9.704;2023-04-25T04:47:36;1.3;;;1.0;;
79592;SDS011;69074;45.164;9.704;2023-04-25T04:50:01;1.3;;;1.0;;
79592;SDS011;69074;45.164;9.704;2023-04-25T04:52:26;1.3;;;1.0;;
79592;SDS011;69074;45.164;9.704;2023-04-25T04:54:51;1.3;;;1.0;;
79592;SDS011;69074;45.164;9.704;2023-04-25T04:57:16;1.3;;;1.0;;
79592;SDS011;69074;45.164;9.704;2023-04-25T04:59:41;1.3;;;1.0;;
79592;SDS011;69074;45.164;9.704;2023-04-25T05:02:06;1.3;;;1.0;;
79592;SDS011;69074;45.164;9.704;2023-04-25T05:04:31;2.1;;;1.1;;
79592;SDS011;69074;45.164;9.704;2023-04-25T05:06:56;2.1;;;1.1;;
79592;SDS011;69074;45.164;9.704;2023-04-25T05:09:21;2.1;;;1.1;;
79592;SDS011;69074;45.164;9.704;2023-04-25T05:11:46;2.1;;;1.1;;
79592;SDS011;69074;45.164;9.704;2023-04-25T05:14:11;2.1;;;1.1;;
79592;SDS011;69074;45.164;9.704;2023-04-25T05:16:36;2.1;;;1.1;;
79592;SDS011;69074;45.164;9.704;2023-04-25T05:19:01;3.0;;;1.5;;
79592;SDS011;69074;45.164;9.704;2023-04-25T05:21:26;3.0;;;1.5;;
79592;SDS011;69074;45.164;9.704;2023-04-25T05:23:51;3.0;;;1.5;;
79592;SDS011;69074;45.164;9.704;2023-04-25T05:26:16;3.0;;;1.5;;
79592;SDS011;69074;45.164;9.704;2023-04-25T05:28:41;3.0;;;1.5;;
79592;SDS011;69074;45.164;9.704;2023-04-25T05:31:06;3.0;;;1.5;;
79592;SDS011;69074;45.164;9.704;2023-04-25T05:33:31;1.5;;;1.2;;
79592;SDS011;69074;45.164;9.704;2023-04-25T05:35:56;1.5;;;1.2;;
79592;SDS011;69074;45.164;9.704;2023-04-25T05:38:21;1.5;;;1.2;;
79592;SDS011;69074;45.164;9.704;2023-04-25T05:40:46;1.5;;;1.2;;
79592;SDS011;69074;45.164;9.704;2023-04-25T05:43:11;1.5;;;1.2;;
79592;SDS011;69074;45.164;9.704;2023-04-25T05:45:36;1.5;;;1.2;;
79592;SDS011;69074;45.164;9.704;2023-04-25T05:48:01;1.6;;;1.2;;
79592;SDS011;69074;45.164;9.704;2023-04-25T05:50:26;1.6;;;1.2;;
79592;SDS011;69074;45.164;9.704;2023-04-25T05:52:51;1.6;;;1.2;;
79592;SDS011;69074;45.164;9.704;2023-04-25T05:55:16;1.6;;;1.2;;
79592;SDS011;69074;45.164;9.704;2023-04-25T05:57:41;1.6;;;1.2;;
79592;SDS011;69074;45.164;9.704;2023-04-25T06:00:07;1.6;;;1.2;;
79592;SDS011;69074;45.164;9.704;2023-04-25T06:02:31;1.5;;;1.1;;
79592;SDS011;69074;45.164;9.704;2023-04-25T06:04:56;1.5;;;1.1;;
79592;SDS011;69074;45.164;9.704;2023-04-25T06:07:21;1.5;;;1.1;;
79592;SDS011;69074;45.164;9.704;2023-04-25T06:09:46;1.5;;;1.1;;
79592;SDS011;69074;45.164;9.704;2023-04-25T06:12:11;1.5;;;1.1;;
79592;SDS011;69074;45.164;9.704;2023-04-25T06:14:36;1.5;;;1.1;;
79592;SDS011;69074;45.164;9.704;2023-04-25T06:17:02;1.5;;;1.1;;
79592;SDS011;69074;45.164;9.704;2023-04-25T06:19:26;2.6;;;1.3;;
79592;SDS011;69074;45.164;9.704;2023-04-25T06:21:51;2.6;;;1.3;;
79592;SDS011;69074;45.164;9.704;2023-04-25T06:24:16;2.6;;;1.3;;
79592;SDS011;69074;45.164;9.704;2023-04-25T06:26:41;2.6;;;1.3;;
79592;SDS011;69074;45.164;9.704;2023-04-25T06:29:06;2.6;;;1.3;;
79592;SDS011;69074;45.164;9.704;2023-04-25T06:31:31;2.6;;;1.3;;
79592;SDS011;69074;45.164;9.704;2023-04-25T06:33:56;1.2;;;1.1;;
79592;SDS011;69074;45.164;9.704;2023-04-25T06:36:21;1.2;;;1.1;;
79592;SDS011;69074;45.164;9.704;2023-04-25T06:38:46;1.2;;;1.1;;
79592;SDS011;69074;45.164;9.704;2023-04-25T06:41:11;1.2;;;1.1;;
79592;SDS011;69074;45.164;9.704;2023-04-25T06:43:36;1.2;;;1.1;;
79592;SDS011;69074;45.164;9.704;2023-04-25T06:46:01;1.2;;;1.1;;
79592;SDS011;69074;45.164;9.704;2023-04-25T06:48:26;3.5;;;1.4;;
79592;SDS011;69074;45.164;9.704;2023-04-25T06:50:51;3.5;;;1.4;;
79592;SDS011;69074;45.164;9.704;2023-04-25T06:53:16;3.5;;;1.4;;
79592;SDS011;69074;45.164;9.704;2023-04-25T06:55:41;3.5;;;1.4;;
79592;SDS011;69074;45.164;9.704;2023-04-25T06:58:06;3.5;;;1.4;;
79592;SDS011;69074;45.164;9.704;2023-04-25T07:00:31;3.5;;;1.4;;
79592;SDS011;69074;45.164;9.704;2023-04-25T07:02:56;5.6;;;2.6;;
79592;SDS011;69074;45.164;9.704;2023-04-25T07:05:21;5.6;;;2.6;;
79592;SDS011;69074;45.164;9.704;2023-04-25T07:07:46;5.6;;;2.6;;
79592;SDS011;69074;45.164;9.704;2023-04-25T07:10:11;5.6;;;2.6;;
79592;SDS011;69074;45.164;9.704;2023-04-25T07:12:37;5.6;;;2.6;;
79592;SDS011;69074;45.164;9.704;2023-04-25T07:15:02;5.6;;;2.6;;
79592;SDS011;69074;45.164;9.704;2023-04-25T07:17:27;8.9;;;7.2;;
79592;SDS011;69074;45.164;9.704;2023-04-25T07:19:52;8.9;;;7.2;;
79592;SDS011;69074;45.164;9.704;2023-04-25T07:22:17;8.9;;;7.2;;
79592;SDS011;69074;45.164;9.704;2023-04-25T07:24:42;8.9;;;7.2;;
79592;SDS011;69074;45.164;9.704;2023-04-25T07:27:07;8.9;;;7.2;;
79592;SDS011;69074;45.164;9.704;2023-04-25T07:29:32;8.9;;;7.2;;
79592;SDS011;69074;45.164;9.704;2023-04-25T07:31:57;8.9;;;7.2;;
79592;SDS011;69074;45.164;9.704;2023-04-25T07:34:22;54.6;;;20.5;;
79592;SDS011;69074;45.164;9.704;2023-04-25T07:36:47;54.6;;;20.5;;
79592;SDS011;69074;45.164;9.704;2023-04-25T07:39:12;54.6;;;20.5;;
79592;SDS011;69074;45.164;9.704;2023-04-25T07:41:37;54.6;;;20.5;;
79592;SDS011;69074;45.164;9.704;2023-04-25T07:44:02;54.6;;;20.5;;
79592;SDS011;69074;45.164;9.704;2023-04-25T07:46:27;54.6;;;20.5;;
79592;SDS011;69074;45.164;9.704;2023-04-25T07:48:52;29.8;;;13.9;;
79592;SDS011;69074;45.164;9.704;2023-04-25T07:51:17;29.8;;;13.9;;
79592;SDS011;69074;45.164;9.704;2023-04-25T07:53:42;29.8;;;13.9;;
79592;SDS011;69074;45.164;9.704;2023-04-25T07:56:07;29.8;;;13.9;;
79592;SDS011;69074;45.164;9.704;2023-04-25T07:58:32;29.8;;;13.9;;
79592;SDS011;69074;45.164;9.704;2023-04-25T08:00:57;29.8;;;13.9;;
79592;SDS011;69074;45.164;9.704;2023-04-25T08:03:22;20.8;;;9.9;;
79592;SDS011;69074;45.164;9.704;2023-04-25T08:05:47;20.8;;;9.9;;
79592;SDS011;69074;45.164;9.704;2023-04-25T08:08:12;20.8;;;9.9;;
79592;SDS011;69074;45.164;9.704;2023-04-25T08:10:37;20.8;;;9.9;;
79592;SDS011;69074;45.164;9.704;2023-04-25T08:13:02;20.8;;;9.9;;
79592;SDS011;69074;45.164;9.704;2023-04-25T08:15:27;20.8;;;9.9;;
79592;SDS011;69074;45.164;9.704;2023-04-25T08:17:52;14.5;;;6.7;;
79592;SDS011;69074;45.164;9.704;2023-04-25T08:20:17;14.5;;;6.7;;
79592;SDS011;69074;45.164;9.704;2023-04-25T08:22:42;14.5;;;6.7;;
79592;SDS011;69074;45.164;9.704;2023-04-25T08:25:07;14.5;;;6.7;;
79592;SDS011;69074;45.164;9.704;2023-04-25T08:27:32;14.5;;;6.7;;
79592;SDS011;69074;45.164;9.704;2023-04-25T08:29:57;14.5;;;6.7;;
79592;SDS011;69074;45.164;9.704;2023-04-25T08:32:22;10.2;;;5.4;;
79592;SDS011;69074;45.164;9.704;2023-04-25T08:34:47;10.2;;;5.4;;
79592;SDS011;69074;45.164;9.704;2023-04-25T08:37:12;10.2;;;5.4;;
79592;SDS011;69074;45.164;9.704;2023-04-25T08:39:37;10.2;;;5.4;;
79592;SDS011;69074;45.164;9.704;2023-04-25T08:42:02;10.2;;;5.4;;
79592;SDS011;69074;45.164;9.704;2023-04-25T08:44:27;10.2;;;5.4;;
79592;SDS011;69074;45.164;9.704;2023-04-25T08:46:52;10.2;;;5.4;;
79592;SDS011;69074;45.164;9.704;2023-04-25T08:49:17;7.0;;;3.8;;
79592;SDS011;69074;45.164;9.704;2023-04-25T08:51:43;7.0;;;3.8;;
79592;SDS011;69074;45.164;9.704;2023-04-25T08:54:08;7.0;;;3.8;;
79592;SDS011;69074;45.164;9.704;2023-04-25T08:56:32;7.0;;;3.8;;
79592;SDS011;69074;45.164;9.704;2023-04-25T08:58:57;7.0;;;3.8;;
79592;SDS011;69074;45.164;9.704;2023-04-25T09:01:22;7.0;;;3.8;;
79592;SDS011;69074;45.164;9.704;2023-04-25T09:03:47;3.4;;;2.4;;
79592;SDS011;69074;45.164;9.704;2023-04-25T09:06:12;3.4;;;2.4;;
79592;SDS011;69074;45.164;9.704;2023-04-25T09:08:37;3.4;;;2.4;;
79592;SDS011;69074;45.164;9.704;2023-04-25T09:11:02;3.4;;;2.4;;
79592;SDS011;69074;45.164;9.704;2023-04-25T09:13:27;3.4;;;2.4;;
79592;SDS011;69074;45.164;9.704;2023-04-25T09:15:53;3.4;;;2.4;;
79592;SDS011;69074;45.164;9.704;2023-04-25T09:18:24;3.5;;;1.7;;
79592;SDS011;69074;45.164;9.704;2023-04-25T09:20:43;3.5;;;1.7;;
79592;SDS011;69074;45.164;9.704;2023-04-25T09:23:07;3.5;;;1.7;;
79592;SDS011;69074;45.164;9.704;2023-04-25T09:25:34;3.5;;;1.7;;
79592;SDS011;69074;45.164;9.704;2023-04-25T09:27:57;3.5;;;1.7;;
79592;SDS011;69074;45.164;9.704;2023-04-25T09:30:28;3.5;;;1.7;;
79592;SDS011;69074;45.164;9.704;2023-04-25T09:32:47;3.7;;;1.5;;
79592;SDS011;69074;45.164;9.704;2023-04-25T09:35:12;3.7;;;1.5;;
79592;SDS011;69074;45.164;9.704;2023-04-25T09:37:37;3.7;;;1.5;;
79592;SDS011;69074;45.164;9.704;2023-04-25T09:40:04;3.7;;;1.5;;
79592;SDS011;69074;45.164;9.704;2023-04-25T09:42:28;3.7;;;1.5;;
79592;SDS011;69074;45.164;9.704;2023-04-25T09:44:53;3.7;;;1.5;;
79592;SDS011;69074;45.164;9.704;2023-04-25T09:47:17;2.0;;;1.3;;
79592;SDS011;69074;45.164;9.704;2023-04-25T09:49:43;2.0;;;1.3;;
79592;SDS011;69074;45.164;9.704;2023-04-25T09:52:08;2.0;;;1.3;;
79592;SDS011;69074;45.164;9.704;2023-04-25T09:54:32;2.0;;;1.3;;
79592;SDS011;69074;45.164;9.704;2023-04-25T09:56:57;2.0;;;1.3;;
79592;SDS011;69074;45.164;9.704;2023-04-25T09:59:22;2.0;;;1.3;;
79592;SDS011;69074;45.164;9.704;2023-04-25T10:01:48;2.0;;;1.3;;
79592;SDS011;69074;45.164;9.704;2023-04-25T10:04:12;1.3;;;1.2;;
79592;SDS011;69074;45.164;9.704;2023-04-25T10:06:38;1.3;;;1.2;;
79592;SDS011;69074;45.164;9.704;2023-04-25T10:09:02;1.3;;;1.2;;
79592;SDS011;69074;45.164;9.704;2023-04-25T10:11:27;1.3;;;1.2;;
79592;SDS011;69074;45.164;9.704;2023-04-25T10:13:52;1.3;;;1.2;;
79592;SDS011;69074;45.164;9.704;2023-04-25T10:16:17;1.3;;;1.2;;
79592;SDS011;69074;45.164;9.704;2023-04-25T10:18:42;1.6;;;1.1;;
79592;SDS011;69074;45.164;9.704;2023-04-25T10:21:07;1.6;;;1.1;;
79592;SDS011;69074;45.164;9.704;2023-04-25T10:23:33;1.6;;;1.1;;
79592;SDS011;69074;45.164;9.704;2023-04-25T10:25:58;1.6;;;1.1;;
79592;SDS011;69074;45.164;9.704;2023-04-25T10:28:22;1.6;;;1.1;;
79592;SDS011;69074;45.164;9.704;2023-04-25T10:30:56;1.6;;;1.1;;
79592;SDS011;69074;45.164;9.704;2023-04-25T10:33:16;2.3;;;1.2;;
79592;SDS011;69074;45.164;9.704;2023-04-25T10:35:38;2.3;;;1.2;;
79592;SDS011;69074;45.164;9.704;2023-04-25T10:38:03;2.3;;;1.2;;
79592;SDS011;69074;45.164;9.704;2023-04-25T10:40:28;2.3;;;1.2;;
79592;SDS011;69074;45.164;9.704;2023-04-25T10:42:53;2.3;;;1.2;;
79592;SDS011;69074;45.164;9.704;2023-04-25T10:45:18;2.3;;;1.2;;
79592;SDS011;69074;45.164;9.704;2023-04-25T10:47:43;1.9;;;1.0;;
79592;SDS011;69074;45.164;9.704;2023-04-25T10:50:08;1.9;;;1.0;;
79592;SDS011;69074;45.164;9.704;2023-04-25T10:52:33;1.9;;;1.0;;
79592;SDS011;69074;45.164;9.704;2023-04-25T10:54:58;1.9;;;1.0;;
79592;SDS011;69074;45.164;9.704;2023-04-25T10:57:26;1.9;;;1.0;;
79592;SDS011;69074;45.164;9.704;2023-04-25T10:59:48;1.9;;;1.0;;
79592;SDS011;69074;45.164;9.704;2023-04-25T11:02:13;1.9;;;1.0;;
79592;SDS011;69074;45.164;9.704;2023-04-25T11:04:38;1.3;;;0.9;;
79592;SDS011;69074;45.164;9.704;2023-04-25T11:07:05;1.3;;;0.9;;
79592;SDS011;69074;45.164;9.704;2023-04-25T11:09:28;1.3;;;0.9;;
79592;SDS011;69074;45.164;9.704;2023-04-25T11:11:53;1.3;;;0.9;;
79592;SDS011;69074;45.164;9.704;2023-04-25T11:14:19;1.3;;;0.9;;
79592;SDS011;69074;45.164;9.704;2023-04-25T11:16:43;1.3;;;0.9;;
79592;SDS011;69074;45.164;9.704;2023-04-25T11:19:08;2.9;;;0.9;;
79592;SDS011;69074;45.164;9.704;2023-04-25T11:21:33;2.9;;;0.9;;
79592;SDS011;69074;45.164;9.704;2023-04-25T11:23:58;2.9;;;0.9;;
79592;SDS011;69074;45.164;9.704;2023-04-25T11:26:23;2.9;;;0.9;;
79592;SDS011;69074;45.164;9.704;2023-04-25T11:28:48;2.9;;;0.9;;
79592;SDS011;69074;45.164;9.704;2023-04-25T11:31:13;2.9;;;0.9;;
79592;SDS011;69074;45.164;9.704;2023-04-25T11:33:38;1.7;;;0.8;;
79592;SDS011;69074;45.164;9.704;2023-04-25T11:36:03;1.7;;;0.8;;
79592;SDS011;69074;45.164;9.704;2023-04-25T11:38:28;1.7;;;0.8;;
79592;SDS011;69074;45.164;9.704;2023-04-25T11:40:53;1.7;;;0.8;;
79592;SDS011;69074;45.164;9.704;2023-04-25T11:43:19;1.7;;;0.8;;
79592;SDS011;69074;45.164;9.704;2023-04-25T11:45:45;1.7;;;0.8;;
79592;SDS011;69074;45.164;9.704;2023-04-25T11:48:08;1.6;;;1.0;;
79592;SDS011;69074;45.164;9.704;2023-04-25T11:50:33;1.6;;;1.0;;
79592;SDS011;69074;45.164;9.704;2023-04-25T11:52:58;1.6;;;1.0;;
79592;SDS011;69074;45.164;9.704;2023-04-25T11:55:23;1.6;;;1.0;;
79592;SDS011;69074;45.164;9.704;2023-04-25T11:57:48;1.6;;;1.0;;
79592;SDS011;69074;45.164;9.704;2023-04-25T12:00:13;1.6;;;1.0;;
79592;SDS011;69074;45.164;9.704;2023-04-25T12:02:40;0.9;;;0.8;;
79592;SDS011;69074;45.164;9.704;2023-04-25T12:05:06;0.9;;;0.8;;
79592;SDS011;69074;45.164;9.704;2023-04-25T12:07:28;0.9;;;0.8;;
79592;SDS011;69074;45.164;9.704;2023-04-25T12:09:53;0.9;;;0.8;;
79592;SDS011;69074;45.164;9.704;2023-04-25T12:12:18;0.9;;;0.8;;
79592;SDS011;69074;45.164;9.704;2023-04-25T12:14:47;0.9;;;0.8;;
79592;SDS011;69074;45.164;9.704;2023-04-25T12:17:08;0.9;;;0.8;;
79592;SDS011;69074;45.164;9.704;2023-04-25T12:19:33;1.2;;;0.9;;
79592;SDS011;69074;45.164;9.704;2023-04-25T12:21:59;1.2;;;0.9;;
79592;SDS011;69074;45.164;9.704;2023-04-25T12:24:24;1.2;;;0.9;;
79592;SDS011;69074;45.164;9.704;2023-04-25T12:26:49;1.2;;;0.9;;
79592;SDS011;69074;45.164;9.704;2023-04-25T12:29:15;1.2;;;0.9;;
79592;SDS011;69074;45.164;9.704;2023-04-25T12:31:38;1.2;;;0.9;;
79592;SDS011;69074;45.164;9.704;2023-04-25T12:34:03;1.0;;;0.9;;
79592;SDS011;69074;45.164;9.704;2023-04-25T12:36:28;1.0;;;0.9;;
79592;SDS011;69074;45.164;9.704;2023-04-25T12:38:53;1.0;;;0.9;;
79592;SDS011;69074;45.164;9.704;2023-04-25T12:41:18;1.0;;;0.9;;
79592;SDS011;69074;45.164;9.704;2023-04-25T12:43:43;1.0;;;0.9;;
79592;SDS011;69074;45.164;9.704;2023-04-25T12:46:08;1.0;;;0.9;;
79592;SDS011;69074;45.164;9.704;2023-04-25T12:48:33;1.5;;;1.0;;
79592;SDS011;69074;45.164;9.704;2023-04-25T12:50:58;1.5;;;1.0;;
79592;SDS011;69074;45.164;9.704;2023-04-25T12:53:23;1.5;;;1.0;;
79592;SDS011;69074;45.164;9.704;2023-04-25T12:55:48;1.5;;;1.0;;
79592;SDS011;69074;45.164;9.704;2023-04-25T12:58:13;1.5;;;1.0;;
79592;SDS011;69074;45.164;9.704;2023-04-25T13:00:38;1.5;;;1.0;;
79592;SDS011;69074;45.164;9.704;2023-04-25T13:03:03;1.0;;;0.9;;
79592;SDS011;69074;45.164;9.704;2023-04-25T13:05:28;1.0;;;0.9;;
79592;SDS011;69074;45.164;9.704;2023-04-25T13:07:53;1.0;;;0.9;;
79592;SDS011;69074;45.164;9.704;2023-04-25T13:10:18;1.0;;;0.9;;
79592;SDS011;69074;45.164;9.704;2023-04-25T13:12:43;1.0;;;0.9;;
79592;SDS011;69074;45.164;9.704;2023-04-25T13:15:08;1.0;;;0.9;;
79592;SDS011;69074;45.164;9.704;2023-04-25T13:17:33;0.8;;;0.8;;
79592;SDS011;69074;45.164;9.704;2023-04-25T13:19:58;0.8;;;0.8;;
79592;SDS011;69074;45.164;9.704;2023-04-25T13:22:23;0.8;;;0.8;;
79592;SDS011;69074;45.164;9.704;2023-04-25T13:24:48;0.8;;;0.8;;
79592;SDS011;69074;45.164;9.704;2023-04-25T13:27:13;0.8;;;0.8;;
79592;SDS011;69074;45.164;9.704;2023-04-25T13:29:38;0.8;;;0.8;;
79592;SDS011;69074;45.164;9.704;2023-04-25T13:32:03;0.8;;;0.8;;
79592;SDS011;69074;45.164;9.704;2023-04-25T13:34:28;1.9;;;1.2;;
79592;SDS011;69074;45.164;9.704;2023-04-25T13:36:53;1.9;;;1.2;;
79592;SDS011;69074;45.164;9.704;2023-04-25T13:39:18;1.9;;;1.2;;
79592;SDS011;69074;45.164;9.704;2023-04-25T13:41:43;1.9;;;1.2;;
79592;SDS011;69074;45.164;9.704;2023-04-25T13:44:08;1.9;;;1.2;;
79592;SDS011;69074;45.164;9.704;2023-04-25T13:46:33;1.9;;;1.2;;
79592;SDS011;69074;45.164;9.704;2023-04-25T13:48:58;1.3;;;1.0;;
79592;SDS011;69074;45.164;9.704;2023-04-25T13:51:23;1.3;;;1.0;;
79592;SDS011;69074;45.164;9.704;2023-04-25T13:53:48;1.3;;;1.0;;
79592;SDS011;69074;45.164;9.704;2023-04-25T13:56:13;1.3;;;1.0;;
79592;SDS011;69074;45.164;9.704;2023-04-25T13:58:38;1.3;;;1.0;;
79592;SDS011;69074;45.164;9.704;2023-04-25T14:01:03;1.3;;;1.0;;
79592;SDS011;69074;45.164;9.704;2023-04-25T14:03:29;0.9;;;0.8;;
79592;SDS011;69074;45.164;9.704;2023-04-25T14:05:53;0.9;;;0.8;;
79592;SDS011;69074;45.164;9.704;2023-04-25T14:08:18;0.9;;;0.8;;
79592;SDS011;69074;45.164;9.704;2023-04-25T14:10:43;0.9;;;0.8;;
79592;SDS011;69074;45.164;9.704;2023-04-25T14:13:08;0.9;;;0.8;;
79592;SDS011;69074;45.164;9.704;2023-04-25T14:15:33;0.9;;;0.8;;
79592;SDS011;69074;45.164;9.704;2023-04-25T14:17:59;2.0;;;1.2;;
79592;SDS011;69074;45.164;9.704;2023-04-25T14:20:24;2.0;;;1.2;;
79592;SDS011;69074;45.164;9.704;2023-04-25T14:22:49;2.0;;;1.2;;
79592;SDS011;69074;45.164;9.704;2023-04-25T14:25:14;2.0;;;1.2;;
79592;SDS011;69074;45.164;9.704;2023-04-25T14:27:38;2.0;;;1.2;;
79592;SDS011;69074;45.164;9.704;2023-04-25T14:30:04;2.0;;;1.2;;
79592;SDS011;69074;45.164;9.704;2023-04-25T14:32:29;2.1;;;0.7;;
79592;SDS011;69074;45.164;9.704;2023-04-25T14:34:53;2.1;;;0.7;;
79592;SDS011;69074;45.164;9.704;2023-04-25T14:37:19;2.1;;;0.7;;
79592;SDS011;69074;45.164;9.704;2023-04-25T14:39:44;2.1;;;0.7;;
79592;SDS011;69074;45.164;9.704;2023-04-25T14:42:09;2.1;;;0.7;;
79592;SDS011;69074;45.164;9.704;2023-04-25T14:44:34;2.1;;;0.7;;
79592;SDS011;69074;45.164;9.704;2023-04-25T14:46:59;2.1;;;0.7;;
79592;SDS011;69074;45.164;9.704;2023-04-25T14:49:24;1.4;;;0.9;;
79592;SDS011;69074;45.164;9.704;2023-04-25T14:51:49;1.4;;;0.9;;
79592;SDS011;69074;45.164;9.704;2023-04-25T14:54:14;1.4;;;0.9;;
79592;SDS011;69074;45.164;9.704;2023-04-25T14:56:39;1.4;;;0.9;;
79592;SDS011;69074;45.164;9.704;2023-04-25T14:59:04;1.4;;;0.9;;
79592;SDS011;69074;45.164;9.704;2023-04-25T15:01:29;1.4;;;0.9;;